sensor_id;sensor_type;location;lat;lon;timestamp;P1;durP1;ratioP1;P2;durP2;ratioP2
38220;SDS011;24023;51.280;7.148;2023-11-19T00:00:17;0.5;;;0.3;;
38220;SDS011;24023;51.280;7.148;2023-11-19T00:05:10;0.7;;;0.4;;
38220;SDS011;24023;51.280;7.148;2023-11-19T00:10:13;0.7;;;0.4;;
38220;SDS011;24023;51.280;7.148;2023-11-19T00:15:11;1.7;;;0.5;;
38220;SDS011;24023;51.280;7.148;2023-11-19T00:20:13;1.7;;;0.5;;
38220;SDS011;24023;51.280;7.148;2023-11-19T00:25:09;1.7;;;0.5;;
38220;SDS011;24023;51.280;7.148;2023-11-19T00:30:13;1.1;;;0.4;;
38220;SDS011;24023;51.280;7.148;2023-11-19T00:35:09;1.1;;;0.4;;
38220;SDS011;24023;51.280;7.148;2023-11-19T00:40:13;1.9;;;0.6;;
38220;SDS011;24023;51.280;7.148;2023-11-19T00:45:15;1.9;;;0.6;;
38220;SDS011;24023;51.280;7.148;2023-11-19T00:50:12;1.9;;;0.6;;
38220;SDS011;24023;51.280;7.148;2023-11-19T00:55:09;1.1;;;0.7;;
38220;SDS011;24023;51.280;7.148;2023-11-19T01:00:21;1.1;;;0.7;;
38220;SDS011;24023;51.280;7.148;2023-11-19T01:05:09;1.5;;;0.9;;
38220;SDS011;24023;51.280;7.148;2023-11-19T01:10:12;1.5;;;0.9;;
38220;SDS011;24023;51.280;7.148;2023-11-19T01:15:10;1.5;;;0.9;;
38220;SDS011;24023;51.280;7.148;2023-11-19T01:20:14;7.1;;;1.0;;
38220;SDS011;24023;51.280;7.148;2023-11-19T01:25:09;7.1;;;1.0;;
38220;SDS011;24023;51.280;7.148;2023-11-19T01:30:14;1.2;;;0.6;;
38220;SDS011;24023;51.280;7.148;2023-11-19T01:35:10;1.2;;;0.6;;
38220;SDS011;24023;51.280;7.148;2023-11-19T01:40:13;1.1;;;0.8;;
38220;SDS011;24023;51.280;7.148;2023-11-19T01:45:17;1.1;;;0.8;;
38220;SDS011;24023;51.280;7.148;2023-11-19T01:50:12;1.1;;;0.6;;
38220;SDS011;24023;51.280;7.148;2023-11-19T01:55:09;1.1;;;0.6;;
38220;SDS011;24023;51.280;7.148;2023-11-19T02:00:16;1.1;;;0.6;;
38220;SDS011;24023;51.280;7.148;2023-11-19T02:05:09;1.0;;;0.6;;
38220;SDS011;24023;51.280;7.148;2023-11-19T02:10:15;1.0;;;0.6;;
38220;SDS011;24023;51.280;7.148;2023-11-19T02:15:11;0.8;;;0.5;;
38220;SDS011;24023;51.280;7.148;2023-11-19T02:20:15;0.8;;;0.5;;
38220;SDS011;24023;51.280;7.148;2023-11-19T02:25:12;0.8;;;0.5;;
38220;SDS011;24023;51.280;7.148;2023-11-19T02:30:14;3.0;;;0.5;;
38220;SDS011;24023;51.280;7.148;2023-11-19T02:35:09;3.0;;;0.5;;
38220;SDS011;24023;51.280;7.148;2023-11-19T02:40:13;2.6;;;0.6;;
38220;SDS011;24023;51.280;7.148;2023-11-19T02:45:15;2.6;;;0.6;;
38220;SDS011;24023;51.280;7.148;2023-11-19T02:50:14;2.6;;;0.8;;
38220;SDS011;24023;51.280;7.148;2023-11-19T02:55:10;2.6;;;0.8;;
38220;SDS011;24023;51.280;7.148;2023-11-19T03:00:19;2.6;;;0.8;;
38220;SDS011;24023;51.280;7.148;2023-11-19T03:05:10;3.5;;;0.9;;
38220;SDS011;24023;51.280;7.148;2023-11-19T03:10:14;3.5;;;0.9;;
38220;SDS011;24023;51.280;7.148;2023-11-19T03:15:11;3.1;;;1.2;;
38220;SDS011;24023;51.280;7.148;2023-11-19T03:20:13;3.1;;;1.2;;
38220;SDS011;24023;51.280;7.148;2023-11-19T03:25:10;3.1;;;1.2;;
38220;SDS011;24023;51.280;7.148;2023-11-19T03:30:14;5.6;;;1.3;;
38220;SDS011;24023;51.280;7.148;2023-11-19T03:35:10;5.6;;;1.3;;
38220;SDS011;24023;51.280;7.148;2023-11-19T03:40:13;4.9;;;1.1;;
38220;SDS011;24023;51.280;7.148;2023-11-19T03:45:14;4.9;;;1.1;;
38220;SDS011;24023;51.280;7.148;2023-11-19T03:50:14;5.8;;;1.5;;
38220;SDS011;24023;51.280;7.148;2023-11-19T03:55:11;5.8;;;1.5;;
38220;SDS011;24023;51.280;7.148;2023-11-19T04:00:17;4.1;;;1.2;;
38220;SDS011;24023;51.280;7.148;2023-11-19T04:05:09;4.1;;;1.2;;
38220;SDS011;24023;51.280;7.148;2023-11-19T04:10:12;7.0;;;1.3;;
38220;SDS011;24023;51.280;7.148;2023-11-19T04:15:10;7.0;;;1.3;;
38220;SDS011;24023;51.280;7.148;2023-11-19T04:20:13;9.9;;;1.7;;
38220;SDS011;24023;51.280;7.148;2023-11-19T04:25:08;9.9;;;1.7;;
38220;SDS011;24023;51.280;7.148;2023-11-19T04:30:14;8.1;;;1.4;;
38220;SDS011;24023;51.280;7.148;2023-11-19T04:35:09;8.1;;;1.4;;
38220;SDS011;24023;51.280;7.148;2023-11-19T04:40:12;9.1;;;2.1;;
38220;SDS011;24023;51.280;7.148;2023-11-19T04:45:12;9.1;;;2.1;;
38220;SDS011;24023;51.280;7.148;2023-11-19T04:50:12;9.9;;;1.8;;
38220;SDS011;24023;51.280;7.148;2023-11-19T04:55:10;9.9;;;1.8;;
38220;SDS011;24023;51.280;7.148;2023-11-19T05:00:19;9.9;;;1.8;;
38220;SDS011;24023;51.280;7.148;2023-11-19T05:05:09;10.7;;;2.0;;
38220;SDS011;24023;51.280;7.148;2023-11-19T05:10:12;12.3;;;2.5;;
38220;SDS011;24023;51.280;7.148;2023-11-19T05:15:10;12.3;;;2.5;;
38220;SDS011;24023;51.280;7.148;2023-11-19T05:20:14;9.1;;;1.6;;
38220;SDS011;24023;51.280;7.148;2023-11-19T05:25:10;9.1;;;1.6;;
38220;SDS011;24023;51.280;7.148;2023-11-19T05:30:14;9.8;;;2.4;;
38220;SDS011;24023;51.280;7.148;2023-11-19T05:35:10;9.8;;;2.4;;
38220;SDS011;24023;51.280;7.148;2023-11-19T05:40:14;9.2;;;2.0;;
38220;SDS011;24023;51.280;7.148;2023-11-19T05:45:13;9.2;;;2.0;;
38220;SDS011;24023;51.280;7.148;2023-11-19T05:50:13;9.2;;;2.0;;
38220;SDS011;24023;51.280;7.148;2023-11-19T05:55:10;10.1;;;2.7;;
38220;SDS011;24023;51.280;7.148;2023-11-19T06:00:18;12.7;;;2.4;;
38220;SDS011;24023;51.280;7.148;2023-11-19T06:05:10;12.7;;;2.4;;
38220;SDS011;24023;51.280;7.148;2023-11-19T06:10:13;8.8;;;2.1;;
38220;SDS011;24023;51.280;7.148;2023-11-19T06:15:11;8.8;;;2.1;;
38220;SDS011;24023;51.280;7.148;2023-11-19T06:20:13;11.5;;;2.7;;
38220;SDS011;24023;51.280;7.148;2023-11-19T06:25:09;11.5;;;2.7;;
38220;SDS011;24023;51.280;7.148;2023-11-19T06:30:14;13.4;;;2.6;;
38220;SDS011;24023;51.280;7.148;2023-11-19T06:35:09;13.4;;;2.6;;
38220;SDS011;24023;51.280;7.148;2023-11-19T06:40:12;11.0;;;2.6;;
38220;SDS011;24023;51.280;7.148;2023-11-19T06:45:13;11.0;;;2.6;;
38220;SDS011;24023;51.280;7.148;2023-11-19T06:50:12;14.8;;;3.0;;
38220;SDS011;24023;51.280;7.148;2023-11-19T06:55:09;14.8;;;3.0;;
38220;SDS011;24023;51.280;7.148;2023-11-19T07:00:18;13.4;;;2.4;;
38220;SDS011;24023;51.280;7.148;2023-11-19T07:05:09;13.4;;;2.4;;
38220;SDS011;24023;51.280;7.148;2023-11-19T07:10:12;14.0;;;2.9;;
38220;SDS011;24023;51.280;7.148;2023-11-19T07:15:11;14.0;;;2.9;;
38220;SDS011;24023;51.280;7.148;2023-11-19T07:20:14;14.0;;;2.9;;
38220;SDS011;24023;51.280;7.148;2023-11-19T07:25:10;13.0;;;2.7;;
38220;SDS011;24023;51.280;7.148;2023-11-19T07:30:13;17.4;;;3.3;;
38220;SDS011;24023;51.280;7.148;2023-11-19T07:35:09;17.4;;;3.3;;
38220;SDS011;24023;51.280;7.148;2023-11-19T07:40:13;12.2;;;2.7;;
38220;SDS011;24023;51.280;7.148;2023-11-19T07:45:13;12.2;;;2.7;;
38220;SDS011;24023;51.280;7.148;2023-11-19T07:50:12;13.4;;;2.8;;
38220;SDS011;24023;51.280;7.148;2023-11-19T07:55:09;13.4;;;2.8;;
38220;SDS011;24023;51.280;7.148;2023-11-19T08:00:16;14.9;;;2.9;;
38220;SDS011;24023;51.280;7.148;2023-11-19T08:05:09;14.9;;;2.9;;
38220;SDS011;24023;51.280;7.148;2023-11-19T08:10:13;14.9;;;2.9;;
38220;SDS011;24023;51.280;7.148;2023-11-19T08:15:11;14.5;;;3.0;;
38220;SDS011;24023;51.280;7.148;2023-11-19T08:20:13;14.5;;;3.0;;
38220;SDS011;24023;51.280;7.148;2023-11-19T08:25:10;15.9;;;3.4;;
38220;SDS011;24023;51.280;7.148;2023-11-19T08:30:14;15.9;;;3.4;;
38220;SDS011;24023;51.280;7.148;2023-11-19T08:35:10;15.9;;;3.4;;
38220;SDS011;24023;51.280;7.148;2023-11-19T08:40:13;13.2;;;3.0;;
38220;SDS011;24023;51.280;7.148;2023-11-19T08:45:13;13.2;;;3.0;;
38220;SDS011;24023;51.280;7.148;2023-11-19T08:50:12;16.5;;;3.5;;
38220;SDS011;24023;51.280;7.148;2023-11-19T08:55:10;16.5;;;3.5;;
38220;SDS011;24023;51.280;7.148;2023-11-19T09:00:18;12.5;;;2.8;;
38220;SDS011;24023;51.280;7.148;2023-11-19T09:05:09;12.5;;;2.8;;
38220;SDS011;24023;51.280;7.148;2023-11-19T09:10:13;13.5;;;2.7;;
38220;SDS011;24023;51.280;7.148;2023-11-19T09:15:11;13.5;;;2.7;;
38220;SDS011;24023;51.280;7.148;2023-11-19T09:20:15;13.1;;;3.0;;
38220;SDS011;24023;51.280;7.148;2023-11-19T09:25:09;13.1;;;3.0;;
38220;SDS011;24023;51.280;7.148;2023-11-19T09:30:15;14.8;;;3.4;;
38220;SDS011;24023;51.280;7.148;2023-11-19T09:35:10;14.8;;;3.4;;
38220;SDS011;24023;51.280;7.148;2023-11-19T09:40:13;14.4;;;3.1;;
38220;SDS011;24023;51.280;7.148;2023-11-19T09:45:13;14.4;;;3.1;;
38220;SDS011;24023;51.280;7.148;2023-11-19T09:50:13;14.4;;;3.7;;
38220;SDS011;24023;51.280;7.148;2023-11-19T09:55:09;14.4;;;3.7;;
38220;SDS011;24023;51.280;7.148;2023-11-19T10:00:17;19.2;;;4.2;;
38220;SDS011;24023;51.280;7.148;2023-11-19T10:05:09;19.2;;;4.2;;
38220;SDS011;24023;51.280;7.148;2023-11-19T10:10:15;15.6;;;4.3;;
38220;SDS011;24023;51.280;7.148;2023-11-19T10:15:13;15.6;;;4.3;;
38220;SDS011;24023;51.280;7.148;2023-11-19T10:20:12;17.4;;;4.0;;
38220;SDS011;24023;51.280;7.148;2023-11-19T10:25:21;17.4;;;4.0;;
38220;SDS011;24023;51.280;7.148;2023-11-19T10:30:14;17.1;;;4.1;;
38220;SDS011;24023;51.280;7.148;2023-11-19T10:35:10;17.1;;;4.1;;
38220;SDS011;24023;51.280;7.148;2023-11-19T10:40:12;14.8;;;3.5;;
38220;SDS011;24023;51.280;7.148;2023-11-19T10:45:21;14.8;;;3.5;;
38220;SDS011;24023;51.280;7.148;2023-11-19T10:50:12;15.9;;;3.9;;
38220;SDS011;24023;51.280;7.148;2023-11-19T10:55:09;15.9;;;3.9;;
38220;SDS011;24023;51.280;7.148;2023-11-19T11:00:19;14.9;;;3.5;;
38220;SDS011;24023;51.280;7.148;2023-11-19T11:05:10;14.9;;;3.5;;
38220;SDS011;24023;51.280;7.148;2023-11-19T11:10:12;14.9;;;3.5;;
38220;SDS011;24023;51.280;7.148;2023-11-19T11:15:11;14.8;;;3.3;;
38220;SDS011;24023;51.280;7.148;2023-11-19T11:20:12;14.8;;;3.3;;
38220;SDS011;24023;51.280;7.148;2023-11-19T11:25:18;15.7;;;3.0;;
38220;SDS011;24023;51.280;7.148;2023-11-19T11:30:18;15.7;;;3.0;;
38220;SDS011;24023;51.280;7.148;2023-11-19T11:35:14;15.7;;;3.0;;
38220;SDS011;24023;51.280;7.148;2023-11-19T11:40:13;15.6;;;3.1;;
38220;SDS011;24023;51.280;7.148;2023-11-19T11:45:13;15.6;;;3.1;;
38220;SDS011;24023;51.280;7.148;2023-11-19T11:50:13;14.6;;;2.8;;
38220;SDS011;24023;51.280;7.148;2023-11-19T11:55:10;14.6;;;2.8;;
38220;SDS011;24023;51.280;7.148;2023-11-19T12:00:21;14.6;;;2.8;;
38220;SDS011;24023;51.280;7.148;2023-11-19T12:05:09;13.1;;;3.6;;
38220;SDS011;24023;51.280;7.148;2023-11-19T12:10:13;11.4;;;2.4;;
38220;SDS011;24023;51.280;7.148;2023-11-19T12:15:11;11.4;;;2.4;;
38220;SDS011;24023;51.280;7.148;2023-11-19T12:20:13;12.6;;;3.0;;
38220;SDS011;24023;51.280;7.148;2023-11-19T12:25:11;12.6;;;3.0;;
38220;SDS011;24023;51.280;7.148;2023-11-19T12:30:16;12.0;;;3.2;;
38220;SDS011;24023;51.280;7.148;2023-11-19T12:35:11;12.0;;;3.2;;
38220;SDS011;24023;51.280;7.148;2023-11-19T12:40:14;12.0;;;3.2;;
38220;SDS011;24023;51.280;7.148;2023-11-19T12:45:14;12.0;;;2.3;;
38220;SDS011;24023;51.280;7.148;2023-11-19T12:50:13;12.0;;;2.3;;
38220;SDS011;24023;51.280;7.148;2023-11-19T12:55:24;12.4;;;2.8;;
38220;SDS011;24023;51.280;7.148;2023-11-19T13:00:19;12.4;;;2.8;;
38220;SDS011;24023;51.280;7.148;2023-11-19T13:05:25;12.4;;;2.8;;
38220;SDS011;24023;51.280;7.148;2023-11-19T13:10:14;11.7;;;2.3;;
38220;SDS011;24023;51.280;7.148;2023-11-19T13:15:22;11.7;;;2.3;;
38220;SDS011;24023;51.280;7.148;2023-11-19T13:20:12;9.4;;;2.2;;
38220;SDS011;24023;51.280;7.148;2023-11-19T13:25:09;9.4;;;2.2;;
38220;SDS011;24023;51.280;7.148;2023-11-19T13:30:15;9.4;;;2.2;;
38220;SDS011;24023;51.280;7.148;2023-11-19T13:35:10;8.9;;;2.0;;
38220;SDS011;24023;51.280;7.148;2023-11-19T13:40:12;8.9;;;2.0;;
38220;SDS011;24023;51.280;7.148;2023-11-19T13:45:14;8.9;;;2.0;;
38220;SDS011;24023;51.280;7.148;2023-11-19T13:50:13;9.2;;;2.4;;
38220;SDS011;24023;51.280;7.148;2023-11-19T13:55:10;9.2;;;2.4;;
38220;SDS011;24023;51.280;7.148;2023-11-19T14:00:18;10.8;;;2.4;;
38220;SDS011;24023;51.280;7.148;2023-11-19T14:05:09;10.8;;;2.4;;
38220;SDS011;24023;51.280;7.148;2023-11-19T14:10:13;9.8;;;2.3;;
38220;SDS011;24023;51.280;7.148;2023-11-19T14:15:11;9.8;;;2.3;;
38220;SDS011;24023;51.280;7.148;2023-11-19T14:20:14;11.9;;;2.3;;
38220;SDS011;24023;51.280;7.148;2023-11-19T14:25:10;11.9;;;2.3;;
38220;SDS011;24023;51.280;7.148;2023-11-19T14:30:14;10.6;;;3.4;;
38220;SDS011;24023;51.280;7.148;2023-11-19T14:35:09;10.6;;;3.4;;
38220;SDS011;24023;51.280;7.148;2023-11-19T14:40:13;13.0;;;2.6;;
38220;SDS011;24023;51.280;7.148;2023-11-19T14:45:14;13.0;;;2.6;;
38220;SDS011;24023;51.280;7.148;2023-11-19T14:50:13;11.4;;;3.3;;
38220;SDS011;24023;51.280;7.148;2023-11-19T14:55:09;11.4;;;3.3;;
38220;SDS011;24023;51.280;7.148;2023-11-19T15:00:18;11.6;;;2.7;;
38220;SDS011;24023;51.280;7.148;2023-11-19T15:05:11;11.6;;;2.7;;
38220;SDS011;24023;51.280;7.148;2023-11-19T15:10:12;10.3;;;2.3;;
38220;SDS011;24023;51.280;7.148;2023-11-19T15:15:11;10.3;;;2.3;;
38220;SDS011;24023;51.280;7.148;2023-11-19T15:20:13;10.3;;;2.3;;
38220;SDS011;24023;51.280;7.148;2023-11-19T15:25:11;9.3;;;2.6;;
38220;SDS011;24023;51.280;7.148;2023-11-19T15:30:14;12.7;;;2.9;;
38220;SDS011;24023;51.280;7.148;2023-11-19T15:35:09;12.7;;;2.9;;
38220;SDS011;24023;51.280;7.148;2023-11-19T15:40:14;12.1;;;2.8;;
38220;SDS011;24023;51.280;7.148;2023-11-19T15:45:14;12.1;;;2.8;;
38220;SDS011;24023;51.280;7.148;2023-11-19T15:50:13;14.3;;;2.9;;
38220;SDS011;24023;51.280;7.148;2023-11-19T15:55:09;14.3;;;2.9;;
38220;SDS011;24023;51.280;7.148;2023-11-19T16:00:18;11.9;;;2.6;;
38220;SDS011;24023;51.280;7.148;2023-11-19T16:05:09;11.9;;;2.6;;
38220;SDS011;24023;51.280;7.148;2023-11-19T16:10:13;12.1;;;2.7;;
38220;SDS011;24023;51.280;7.148;2023-11-19T16:15:10;12.1;;;2.7;;
38220;SDS011;24023;51.280;7.148;2023-11-19T16:20:12;10.7;;;2.5;;
38220;SDS011;24023;51.280;7.148;2023-11-19T16:25:09;10.7;;;2.5;;
38220;SDS011;24023;51.280;7.148;2023-11-19T16:30:13;16.9;;;6.3;;
38220;SDS011;24023;51.280;7.148;2023-11-19T16:35:10;16.9;;;6.3;;
38220;SDS011;24023;51.280;7.148;2023-11-19T16:40:13;10.3;;;2.3;;
38220;SDS011;24023;51.280;7.148;2023-11-19T16:45:13;10.3;;;2.3;;
38220;SDS011;24023;51.280;7.148;2023-11-19T16:50:13;11.5;;;2.5;;
38220;SDS011;24023;51.280;7.148;2023-11-19T16:55:12;11.5;;;2.5;;
38220;SDS011;24023;51.280;7.148;2023-11-19T17:00:21;13.8;;;3.8;;
38220;SDS011;24023;51.280;7.148;2023-11-19T17:05:09;13.8;;;3.8;;
38220;SDS011;24023;51.280;7.148;2023-11-19T17:10:12;12.2;;;3.0;;
38220;SDS011;24023;51.280;7.148;2023-11-19T17:15:11;12.2;;;3.0;;
38220;SDS011;24023;51.280;7.148;2023-11-19T17:20:13;10.2;;;2.7;;
38220;SDS011;24023;51.280;7.148;2023-11-19T17:25:10;10.2;;;2.7;;
38220;SDS011;24023;51.280;7.148;2023-11-19T17:30:15;11.1;;;3.0;;
38220;SDS011;24023;51.280;7.148;2023-11-19T17:35:10;11.1;;;3.0;;
38220;SDS011;24023;51.280;7.148;2023-11-19T17:40:14;14.0;;;4.3;;
38220;SDS011;24023;51.280;7.148;2023-11-19T17:45:13;30.1;;;13.9;;
38220;SDS011;24023;51.280;7.148;2023-11-19T17:50:13;30.1;;;13.9;;
38220;SDS011;24023;51.280;7.148;2023-11-19T17:55:13;30.1;;;13.9;;
38220;SDS011;24023;51.280;7.148;2023-11-19T18:00:17;30.7;;;18.1;;
38220;SDS011;24023;51.280;7.148;2023-11-19T18:05:09;30.7;;;18.1;;
38220;SDS011;24023;51.280;7.148;2023-11-19T18:10:13;12.9;;;2.6;;
38220;SDS011;24023;51.280;7.148;2023-11-19T18:15:10;12.9;;;2.6;;
38220;SDS011;24023;51.280;7.148;2023-11-19T18:20:13;11.5;;;2.8;;
38220;SDS011;24023;51.280;7.148;2023-11-19T18:25:11;11.5;;;2.8;;
38220;SDS011;24023;51.280;7.148;2023-11-19T18:30:15;8.9;;;2.7;;
38220;SDS011;24023;51.280;7.148;2023-11-19T18:35:11;8.9;;;2.7;;
38220;SDS011;24023;51.280;7.148;2023-11-19T18:40:13;11.5;;;2.9;;
38220;SDS011;24023;51.280;7.148;2023-11-19T18:45:13;11.5;;;2.9;;
38220;SDS011;24023;51.280;7.148;2023-11-19T18:50:12;13.0;;;2.9;;
38220;SDS011;24023;51.280;7.148;2023-11-19T18:55:10;13.0;;;2.9;;
38220;SDS011;24023;51.280;7.148;2023-11-19T19:00:20;10.5;;;2.3;;
38220;SDS011;24023;51.280;7.148;2023-11-19T19:05:11;10.5;;;2.3;;
38220;SDS011;24023;51.280;7.148;2023-11-19T19:10:14;7.9;;;1.9;;
38220;SDS011;24023;51.280;7.148;2023-11-19T19:15:12;7.9;;;1.9;;
38220;SDS011;24023;51.280;7.148;2023-11-19T19:20:13;7.7;;;2.0;;
38220;SDS011;24023;51.280;7.148;2023-11-19T19:25:09;7.7;;;2.0;;
38220;SDS011;24023;51.280;7.148;2023-11-19T19:30:13;7.3;;;1.9;;
38220;SDS011;24023;51.280;7.148;2023-11-19T19:35:10;7.3;;;1.9;;
38220;SDS011;24023;51.280;7.148;2023-11-19T19:40:13;7.3;;;1.9;;
38220;SDS011;24023;51.280;7.148;2023-11-19T19:45:14;8.6;;;1.8;;
38220;SDS011;24023;51.280;7.148;2023-11-19T19:50:12;8.6;;;1.8;;
38220;SDS011;24023;51.280;7.148;2023-11-19T19:55:08;8.0;;;1.8;;
38220;SDS011;24023;51.280;7.148;2023-11-19T20:00:19;8.0;;;1.8;;
38220;SDS011;24023;51.280;7.148;2023-11-19T20:05:12;8.0;;;1.8;;
38220;SDS011;24023;51.280;7.148;2023-11-19T20:10:12;6.0;;;1.4;;
38220;SDS011;24023;51.280;7.148;2023-11-19T20:15:11;4.0;;;1.1;;
38220;SDS011;24023;51.280;7.148;2023-11-19T20:20:13;4.0;;;1.1;;
38220;SDS011;24023;51.280;7.148;2023-11-19T20:25:09;4.0;;;1.1;;
38220;SDS011;24023;51.280;7.148;2023-11-19T20:30:15;4.3;;;1.2;;
38220;SDS011;24023;51.280;7.148;2023-11-19T20:35:10;4.3;;;1.2;;
38220;SDS011;24023;51.280;7.148;2023-11-19T20:40:15;5.3;;;1.8;;
38220;SDS011;24023;51.280;7.148;2023-11-19T20:45:12;5.3;;;1.8;;
38220;SDS011;24023;51.280;7.148;2023-11-19T20:50:12;5.3;;;1.8;;
38220;SDS011;24023;51.280;7.148;2023-11-19T20:55:10;4.5;;;1.4;;
38220;SDS011;24023;51.280;7.148;2023-11-19T21:00:21;4.5;;;1.4;;
38220;SDS011;24023;51.280;7.148;2023-11-19T21:05:10;3.7;;;1.0;;
38220;SDS011;24023;51.280;7.148;2023-11-19T21:10:13;3.7;;;1.0;;
38220;SDS011;24023;51.280;7.148;2023-11-19T21:15:10;3.7;;;1.0;;
38220;SDS011;24023;51.280;7.148;2023-11-19T21:20:12;6.8;;;1.5;;
38220;SDS011;24023;51.280;7.148;2023-11-19T21:25:12;6.8;;;1.5;;
38220;SDS011;24023;51.280;7.148;2023-11-19T21:30:14;5.1;;;1.2;;
38220;SDS011;24023;51.280;7.148;2023-11-19T21:35:10;5.1;;;1.2;;
38220;SDS011;24023;51.280;7.148;2023-11-19T21:40:13;4.5;;;1.1;;
38220;SDS011;24023;51.280;7.148;2023-11-19T21:45:13;4.5;;;1.1;;
38220;SDS011;24023;51.280;7.148;2023-11-19T21:50:12;3.5;;;1.0;;
38220;SDS011;24023;51.280;7.148;2023-11-19T21:55:10;3.5;;;1.0;;
38220;SDS011;24023;51.280;7.148;2023-11-19T22:00:18;3.5;;;1.0;;
38220;SDS011;24023;51.280;7.148;2023-11-19T22:05:10;5.0;;;1.2;;
38220;SDS011;24023;51.280;7.148;2023-11-19T22:10:14;5.0;;;1.2;;
38220;SDS011;24023;51.280;7.148;2023-11-19T22:15:11;5.8;;;1.4;;
38220;SDS011;24023;51.280;7.148;2023-11-19T22:20:12;5.8;;;1.4;;
38220;SDS011;24023;51.280;7.148;2023-11-19T22:25:10;5.8;;;1.4;;
38220;SDS011;24023;51.280;7.148;2023-11-19T22:30:14;4.8;;;1.2;;
38220;SDS011;24023;51.280;7.148;2023-11-19T22:35:09;4.8;;;1.2;;
38220;SDS011;24023;51.280;7.148;2023-11-19T22:40:13;4.1;;;1.1;;
38220;SDS011;24023;51.280;7.148;2023-11-19T22:45:13;4.1;;;1.1;;
38220;SDS011;24023;51.280;7.148;2023-11-19T22:50:11;4.1;;;1.1;;
38220;SDS011;24023;51.280;7.148;2023-11-19T22:55:10;5.2;;;1.6;;
38220;SDS011;24023;51.280;7.148;2023-11-19T23:00:28;5.2;;;1.6;;
38220;SDS011;24023;51.280;7.148;2023-11-19T23:05:13;4.3;;;1.3;;
38220;SDS011;24023;51.280;7.148;2023-11-19T23:10:13;4.3;;;1.3;;
38220;SDS011;24023;51.280;7.148;2023-11-19T23:15:15;4.8;;;1.2;;
38220;SDS011;24023;51.280;7.148;2023-11-19T23:20:13;4.8;;;1.2;;
38220;SDS011;24023;51.280;7.148;2023-11-19T23:25:09;4.8;;;1.2;;
38220;SDS011;24023;51.280;7.148;2023-11-19T23:30:15;6.2;;;1.6;;
38220;SDS011;24023;51.280;7.148;2023-11-19T23:35:10;6.2;;;1.6;;
38220;SDS011;24023;51.280;7.148;2023-11-19T23:40:12;4.5;;;1.1;;
38220;SDS011;24023;51.280;7.148;2023-11-19T23:45:15;4.5;;;1.1;;
38220;SDS011;24023;51.280;7.148;2023-11-19T23:50:12;4.7;;;0.9;;
38220;SDS011;24023;51.280;7.148;2023-11-19T23:55:13;4.7;;;0.9;;
